sensor_id;sensor_type;location;lat;lon;timestamp;P1;durP1;ratioP1;P2;durP2;ratioP2
21822;SDS011;11074;48.596;9.238;2023-04-12T00:02:20;8.70;;;3.55;;
21822;SDS011;11074;48.596;9.238;2023-04-12T00:04:45;5.60;;;3.20;;
21822;SDS011;11074;48.596;9.238;2023-04-12T00:07:13;6.13;;;2.75;;
21822;SDS011;11074;48.596;9.238;2023-04-12T00:09:38;7.05;;;3.30;;
21822;SDS011;11074;48.596;9.238;2023-04-12T00:12:04;7.00;;;3.00;;
21822;SDS011;11074;48.596;9.238;2023-04-12T00:14:30;11.13;;;2.78;;
21822;SDS011;11074;48.596;9.238;2023-04-12T00:16:56;5.45;;;2.60;;
21822;SDS011;11074;48.596;9.238;2023-04-12T00:19:21;6.47;;;2.92;;
21822;SDS011;11074;48.596;9.238;2023-04-12T00:21:51;7.28;;;3.03;;
21822;SDS011;11074;48.596;9.238;2023-04-12T00:24:17;7.15;;;3.05;;
21822;SDS011;11074;48.596;9.238;2023-04-12T00:26:43;6.85;;;2.60;;
21822;SDS011;11074;48.596;9.238;2023-04-12T00:29:09;5.65;;;2.25;;
21822;SDS011;11074;48.596;9.238;2023-04-12T00:31:35;5.95;;;2.25;;
21822;SDS011;11074;48.596;9.238;2023-04-12T00:34:00;6.90;;;2.45;;
21822;SDS011;11074;48.596;9.238;2023-04-12T00:36:26;6.57;;;2.50;;
21822;SDS011;11074;48.596;9.238;2023-04-12T00:38:51;5.32;;;2.38;;
21822;SDS011;11074;48.596;9.238;2023-04-12T00:41:17;4.55;;;2.50;;
21822;SDS011;11074;48.596;9.238;2023-04-12T00:43:43;4.68;;;2.13;;
21822;SDS011;11074;48.596;9.238;2023-04-12T00:46:08;5.85;;;2.30;;
21822;SDS011;11074;48.596;9.238;2023-04-12T00:48:36;5.90;;;2.28;;
21822;SDS011;11074;48.596;9.238;2023-04-12T00:51:02;4.40;;;2.10;;
21822;SDS011;11074;48.596;9.238;2023-04-12T00:53:31;7.35;;;2.10;;
21822;SDS011;11074;48.596;9.238;2023-04-12T00:55:58;4.97;;;1.98;;
21822;SDS011;11074;48.596;9.238;2023-04-12T00:58:25;4.50;;;1.80;;
21822;SDS011;11074;48.596;9.238;2023-04-12T01:00:51;5.10;;;2.00;;
21822;SDS011;11074;48.596;9.238;2023-04-12T01:03:18;7.55;;;2.22;;
21822;SDS011;11074;48.596;9.238;2023-04-12T01:06:12;4.20;;;1.70;;
21822;SDS011;11074;48.596;9.238;2023-04-12T01:09:01;7.05;;;2.00;;
21822;SDS011;11074;48.596;9.238;2023-04-12T01:14:21;5.28;;;2.00;;
21822;SDS011;11074;48.596;9.238;2023-04-12T01:17:06;7.07;;;2.10;;
21822;SDS011;11074;48.596;9.238;2023-04-12T01:19:55;5.70;;;2.05;;
21822;SDS011;11074;48.596;9.238;2023-04-12T01:28:13;3.97;;;1.73;;
21822;SDS011;11074;48.596;9.238;2023-04-12T01:30:46;5.57;;;1.88;;
21822;SDS011;11074;48.596;9.238;2023-04-12T01:33:15;3.17;;;1.38;;
21822;SDS011;11074;48.596;9.238;2023-04-12T01:35:42;4.28;;;1.60;;
21822;SDS011;11074;48.596;9.238;2023-04-12T01:38:10;5.22;;;1.50;;
21822;SDS011;11074;48.596;9.238;2023-04-12T01:40:36;6.35;;;1.80;;
21822;SDS011;11074;48.596;9.238;2023-04-12T01:45:36;6.75;;;2.00;;
21822;SDS011;11074;48.596;9.238;2023-04-12T01:48:06;6.78;;;1.80;;
21822;SDS011;11074;48.596;9.238;2023-04-12T01:50:43;4.03;;;1.80;;
21822;SDS011;11074;48.596;9.238;2023-04-12T01:54:16;3.83;;;1.63;;
21822;SDS011;11074;48.596;9.238;2023-04-12T01:56:42;4.55;;;2.08;;
21822;SDS011;11074;48.596;9.238;2023-04-12T01:59:13;5.32;;;1.83;;
21822;SDS011;11074;48.596;9.238;2023-04-12T02:01:40;6.22;;;1.90;;
21822;SDS011;11074;48.596;9.238;2023-04-12T02:04:07;5.38;;;2.08;;
21822;SDS011;11074;48.596;9.238;2023-04-12T02:06:35;5.85;;;2.33;;
21822;SDS011;11074;48.596;9.238;2023-04-12T02:09:03;5.47;;;2.10;;
21822;SDS011;11074;48.596;9.238;2023-04-12T02:11:33;4.90;;;1.60;;
21822;SDS011;11074;48.596;9.238;2023-04-12T02:13:59;5.53;;;1.60;;
21822;SDS011;11074;48.596;9.238;2023-04-12T02:16:25;5.18;;;2.13;;
21822;SDS011;11074;48.596;9.238;2023-04-12T02:18:53;5.28;;;1.70;;
21822;SDS011;11074;48.596;9.238;2023-04-12T02:21:21;5.85;;;2.08;;
21822;SDS011;11074;48.596;9.238;2023-04-12T02:23:47;5.05;;;1.90;;
21822;SDS011;11074;48.596;9.238;2023-04-12T02:26:12;4.72;;;1.98;;
21822;SDS011;11074;48.596;9.238;2023-04-12T02:28:38;5.05;;;1.65;;
21822;SDS011;11074;48.596;9.238;2023-04-12T02:31:04;4.95;;;2.22;;
21822;SDS011;11074;48.596;9.238;2023-04-12T02:33:32;5.25;;;1.80;;
21822;SDS011;11074;48.596;9.238;2023-04-12T02:35:58;6.82;;;2.05;;
21822;SDS011;11074;48.596;9.238;2023-04-12T02:38:27;5.38;;;1.75;;
21822;SDS011;11074;48.596;9.238;2023-04-12T02:40:54;5.10;;;1.80;;
21822;SDS011;11074;48.596;9.238;2023-04-12T02:43:20;4.93;;;2.00;;
21822;SDS011;11074;48.596;9.238;2023-04-12T02:45:46;4.82;;;1.92;;
21822;SDS011;11074;48.596;9.238;2023-04-12T02:48:13;6.20;;;1.98;;
21822;SDS011;11074;48.596;9.238;2023-04-12T02:50:38;5.63;;;2.05;;
21822;SDS011;11074;48.596;9.238;2023-04-12T02:53:04;5.82;;;2.05;;
21822;SDS011;11074;48.596;9.238;2023-04-12T02:55:30;5.10;;;2.00;;
21822;SDS011;11074;48.596;9.238;2023-04-12T02:57:55;7.35;;;1.98;;
21822;SDS011;11074;48.596;9.238;2023-04-12T03:00:22;5.20;;;1.80;;
21822;SDS011;11074;48.596;9.238;2023-04-12T03:02:48;5.07;;;2.03;;
21822;SDS011;11074;48.596;9.238;2023-04-12T03:05:15;4.45;;;2.03;;
21822;SDS011;11074;48.596;9.238;2023-04-12T03:07:41;6.50;;;2.33;;
21822;SDS011;11074;48.596;9.238;2023-04-12T03:10:08;4.70;;;1.85;;
21822;SDS011;11074;48.596;9.238;2023-04-12T03:12:35;6.45;;;1.90;;
21822;SDS011;11074;48.596;9.238;2023-04-12T03:15:01;6.43;;;1.85;;
21822;SDS011;11074;48.596;9.238;2023-04-12T03:17:27;7.53;;;2.05;;
21822;SDS011;11074;48.596;9.238;2023-04-12T03:19:52;8.07;;;2.38;;
21822;SDS011;11074;48.596;9.238;2023-04-12T03:22:19;6.82;;;2.10;;
21822;SDS011;11074;48.596;9.238;2023-04-12T03:24:45;5.20;;;2.08;;
21822;SDS011;11074;48.596;9.238;2023-04-12T03:27:11;5.28;;;1.98;;
21822;SDS011;11074;48.596;9.238;2023-04-12T03:29:36;5.72;;;2.08;;
21822;SDS011;11074;48.596;9.238;2023-04-12T03:32:02;3.63;;;2.05;;
21822;SDS011;11074;48.596;9.238;2023-04-12T03:34:28;5.72;;;2.53;;
21822;SDS011;11074;48.596;9.238;2023-04-12T03:36:56;6.93;;;2.55;;
21822;SDS011;11074;48.596;9.238;2023-04-12T03:39:22;4.82;;;2.47;;
21822;SDS011;11074;48.596;9.238;2023-04-12T03:41:48;6.18;;;2.55;;
21822;SDS011;11074;48.596;9.238;2023-04-12T03:44:15;6.15;;;2.50;;
21822;SDS011;11074;48.596;9.238;2023-04-12T03:46:41;7.43;;;2.67;;
21822;SDS011;11074;48.596;9.238;2023-04-12T03:49:06;7.10;;;3.00;;
21822;SDS011;11074;48.596;9.238;2023-04-12T03:51:32;5.50;;;2.58;;
21822;SDS011;11074;48.596;9.238;2023-04-12T03:53:58;5.60;;;2.85;;
21822;SDS011;11074;48.596;9.238;2023-04-12T03:56:26;4.28;;;2.35;;
21822;SDS011;11074;48.596;9.238;2023-04-12T03:58:52;6.93;;;2.65;;
21822;SDS011;11074;48.596;9.238;2023-04-12T04:01:18;3.30;;;2.17;;
21822;SDS011;11074;48.596;9.238;2023-04-12T04:03:43;4.80;;;2.05;;
21822;SDS011;11074;48.596;9.238;2023-04-12T04:06:10;6.90;;;2.50;;
21822;SDS011;11074;48.596;9.238;2023-04-12T04:08:36;7.57;;;2.15;;
21822;SDS011;11074;48.596;9.238;2023-04-12T04:11:02;5.57;;;2.35;;
21822;SDS011;11074;48.596;9.238;2023-04-12T04:13:28;5.80;;;2.45;;
21822;SDS011;11074;48.596;9.238;2023-04-12T04:15:58;6.28;;;2.40;;
21822;SDS011;11074;48.596;9.238;2023-04-12T04:20:55;4.07;;;2.65;;
21822;SDS011;11074;48.596;9.238;2023-04-12T04:23:20;4.05;;;2.38;;
21822;SDS011;11074;48.596;9.238;2023-04-12T04:25:47;4.20;;;2.15;;
21822;SDS011;11074;48.596;9.238;2023-04-12T04:28:13;4.47;;;2.33;;
21822;SDS011;11074;48.596;9.238;2023-04-12T04:30:40;4.68;;;2.42;;
21822;SDS011;11074;48.596;9.238;2023-04-12T04:33:06;5.72;;;2.45;;
21822;SDS011;11074;48.596;9.238;2023-04-12T04:35:37;5.80;;;2.70;;
21822;SDS011;11074;48.596;9.238;2023-04-12T04:38:04;5.40;;;2.75;;
21822;SDS011;11074;48.596;9.238;2023-04-12T04:40:30;3.85;;;2.58;;
21822;SDS011;11074;48.596;9.238;2023-04-12T04:42:57;5.30;;;3.00;;
21822;SDS011;11074;48.596;9.238;2023-04-12T04:45:23;5.30;;;2.95;;
21822;SDS011;11074;48.596;9.238;2023-04-12T04:47:54;4.38;;;2.67;;
21822;SDS011;11074;48.596;9.238;2023-04-12T04:50:21;5.90;;;3.05;;
21822;SDS011;11074;48.596;9.238;2023-04-12T04:52:52;4.65;;;3.03;;
21822;SDS011;11074;48.596;9.238;2023-04-12T04:55:17;5.75;;;2.70;;
21822;SDS011;11074;48.596;9.238;2023-04-12T04:57:48;4.88;;;2.17;;
21822;SDS011;11074;48.596;9.238;2023-04-12T05:00:17;4.10;;;2.33;;
21822;SDS011;11074;48.596;9.238;2023-04-12T05:02:43;4.22;;;2.25;;
21822;SDS011;11074;48.596;9.238;2023-04-12T05:05:09;4.07;;;2.30;;
21822;SDS011;11074;48.596;9.238;2023-04-12T05:07:39;5.40;;;2.08;;
21822;SDS011;11074;48.596;9.238;2023-04-12T05:10:07;4.00;;;2.60;;
21822;SDS011;11074;48.596;9.238;2023-04-12T05:12:35;4.75;;;2.60;;
21822;SDS011;11074;48.596;9.238;2023-04-12T05:15:02;3.55;;;2.00;;
21822;SDS011;11074;48.596;9.238;2023-04-12T05:17:28;4.90;;;2.25;;
21822;SDS011;11074;48.596;9.238;2023-04-12T05:19:54;4.63;;;2.00;;
21822;SDS011;11074;48.596;9.238;2023-04-12T05:22:20;4.53;;;2.25;;
21822;SDS011;11074;48.596;9.238;2023-04-12T05:24:46;5.30;;;2.30;;
21822;SDS011;11074;48.596;9.238;2023-04-12T05:27:13;6.20;;;2.80;;
21822;SDS011;11074;48.596;9.238;2023-04-12T05:29:40;6.13;;;3.08;;
21822;SDS011;11074;48.596;9.238;2023-04-12T05:32:09;4.43;;;2.85;;
21822;SDS011;11074;48.596;9.238;2023-04-12T05:34:35;6.45;;;3.22;;
21822;SDS011;11074;48.596;9.238;2023-04-12T05:37:02;5.43;;;2.97;;
21822;SDS011;11074;48.596;9.238;2023-04-12T05:39:28;6.43;;;3.42;;
21822;SDS011;11074;48.596;9.238;2023-04-12T05:41:54;5.30;;;3.25;;
21822;SDS011;11074;48.596;9.238;2023-04-12T05:44:20;8.13;;;3.40;;
21822;SDS011;11074;48.596;9.238;2023-04-12T05:46:46;5.20;;;3.00;;
21822;SDS011;11074;48.596;9.238;2023-04-12T05:49:12;6.18;;;3.40;;
21822;SDS011;11074;48.596;9.238;2023-04-12T05:51:37;3.92;;;3.00;;
21822;SDS011;11074;48.596;9.238;2023-04-12T05:54:03;7.22;;;3.40;;
21822;SDS011;11074;48.596;9.238;2023-04-12T05:56:32;6.72;;;3.30;;
21822;SDS011;11074;48.596;9.238;2023-04-12T05:58:58;5.20;;;2.92;;
21822;SDS011;11074;48.596;9.238;2023-04-12T06:01:27;5.60;;;2.75;;
21822;SDS011;11074;48.596;9.238;2023-04-12T06:03:56;5.22;;;2.85;;
21822;SDS011;11074;48.596;9.238;2023-04-12T06:06:22;6.20;;;2.80;;
21822;SDS011;11074;48.596;9.238;2023-04-12T06:08:48;4.15;;;2.92;;
21822;SDS011;11074;48.596;9.238;2023-04-12T06:11:13;7.22;;;3.33;;
21822;SDS011;11074;48.596;9.238;2023-04-12T06:13:40;3.92;;;2.53;;
21822;SDS011;11074;48.596;9.238;2023-04-12T06:16:06;4.88;;;2.70;;
21822;SDS011;11074;48.596;9.238;2023-04-12T06:18:32;6.30;;;3.10;;
21822;SDS011;11074;48.596;9.238;2023-04-12T06:20:58;4.07;;;2.72;;
21822;SDS011;11074;48.596;9.238;2023-04-12T06:23:24;6.90;;;2.88;;
21822;SDS011;11074;48.596;9.238;2023-04-12T06:25:50;5.53;;;3.15;;
21822;SDS011;11074;48.596;9.238;2023-04-12T06:28:17;7.75;;;3.03;;
21822;SDS011;11074;48.596;9.238;2023-04-12T06:30:43;4.88;;;2.92;;
21822;SDS011;11074;48.596;9.238;2023-04-12T06:33:09;3.42;;;2.58;;
21822;SDS011;11074;48.596;9.238;2023-04-12T06:35:36;5.40;;;2.92;;
21822;SDS011;11074;48.596;9.238;2023-04-12T06:38:01;5.75;;;2.70;;
21822;SDS011;11074;48.596;9.238;2023-04-12T06:40:27;4.53;;;2.83;;
21822;SDS011;11074;48.596;9.238;2023-04-12T06:42:53;4.45;;;2.58;;
21822;SDS011;11074;48.596;9.238;2023-04-12T06:45:19;5.30;;;2.40;;
21822;SDS011;11074;48.596;9.238;2023-04-12T06:47:45;4.93;;;2.60;;
21822;SDS011;11074;48.596;9.238;2023-04-12T06:50:11;4.70;;;2.63;;
21822;SDS011;11074;48.596;9.238;2023-04-12T06:52:37;3.60;;;2.30;;
21822;SDS011;11074;48.596;9.238;2023-04-12T06:55:03;7.53;;;2.50;;
21822;SDS011;11074;48.596;9.238;2023-04-12T06:57:30;4.97;;;2.45;;
21822;SDS011;11074;48.596;9.238;2023-04-12T06:59:55;5.30;;;3.00;;
21822;SDS011;11074;48.596;9.238;2023-04-12T07:02:21;6.32;;;2.70;;
21822;SDS011;11074;48.596;9.238;2023-04-12T07:04:50;5.93;;;3.05;;
21822;SDS011;11074;48.596;9.238;2023-04-12T07:07:18;4.25;;;2.33;;
21822;SDS011;11074;48.596;9.238;2023-04-12T07:09:44;3.53;;;2.25;;
21822;SDS011;11074;48.596;9.238;2023-04-12T07:12:11;3.70;;;2.17;;
21822;SDS011;11074;48.596;9.238;2023-04-12T07:14:37;3.55;;;2.03;;
21822;SDS011;11074;48.596;9.238;2023-04-12T07:17:04;5.00;;;2.08;;
21822;SDS011;11074;48.596;9.238;2023-04-12T07:19:30;3.00;;;1.80;;
21822;SDS011;11074;48.596;9.238;2023-04-12T07:21:56;2.60;;;1.80;;
21822;SDS011;11074;48.596;9.238;2023-04-12T07:24:22;3.55;;;2.00;;
21822;SDS011;11074;48.596;9.238;2023-04-12T07:26:48;3.72;;;1.80;;
21822;SDS011;11074;48.596;9.238;2023-04-12T07:29:18;2.30;;;1.40;;
21822;SDS011;11074;48.596;9.238;2023-04-12T07:31:43;3.75;;;1.55;;
21822;SDS011;11074;48.596;9.238;2023-04-12T07:34:09;2.97;;;1.55;;
21822;SDS011;11074;48.596;9.238;2023-04-12T07:36:35;3.22;;;1.60;;
21822;SDS011;11074;48.596;9.238;2023-04-12T07:39:01;3.35;;;1.35;;
21822;SDS011;11074;48.596;9.238;2023-04-12T07:41:26;2.72;;;1.63;;
21822;SDS011;11074;48.596;9.238;2023-04-12T07:43:52;2.42;;;1.67;;
21822;SDS011;11074;48.596;9.238;2023-04-12T07:46:18;5.13;;;1.30;;
21822;SDS011;11074;48.596;9.238;2023-04-12T07:48:45;2.05;;;1.20;;
21822;SDS011;11074;48.596;9.238;2023-04-12T07:51:11;1.50;;;0.90;;
21822;SDS011;11074;48.596;9.238;2023-04-12T07:53:37;2.10;;;0.93;;
21822;SDS011;11074;48.596;9.238;2023-04-12T07:56:04;2.80;;;1.05;;
21822;SDS011;11074;48.596;9.238;2023-04-12T07:58:31;2.03;;;1.15;;
21822;SDS011;11074;48.596;9.238;2023-04-12T08:00:58;2.17;;;1.17;;
21822;SDS011;11074;48.596;9.238;2023-04-12T08:03:24;2.10;;;1.23;;
21822;SDS011;11074;48.596;9.238;2023-04-12T08:05:51;2.13;;;1.10;;
21822;SDS011;11074;48.596;9.238;2023-04-12T08:08:19;3.00;;;1.27;;
21822;SDS011;11074;48.596;9.238;2023-04-12T08:10:46;2.38;;;1.30;;
21822;SDS011;11074;48.596;9.238;2023-04-12T08:13:13;2.42;;;1.20;;
21822;SDS011;11074;48.596;9.238;2023-04-12T08:15:39;2.45;;;1.35;;
21822;SDS011;11074;48.596;9.238;2023-04-12T08:18:05;2.13;;;1.40;;
21822;SDS011;11074;48.596;9.238;2023-04-12T08:20:31;4.30;;;1.42;;
21822;SDS011;11074;48.596;9.238;2023-04-12T08:22:57;3.78;;;1.60;;
21822;SDS011;11074;48.596;9.238;2023-04-12T08:25:23;3.78;;;1.15;;
21822;SDS011;11074;48.596;9.238;2023-04-12T08:27:49;2.63;;;1.17;;
21822;SDS011;11074;48.596;9.238;2023-04-12T08:30:15;1.92;;;1.25;;
21822;SDS011;11074;48.596;9.238;2023-04-12T08:32:41;2.22;;;1.20;;
21822;SDS011;11074;48.596;9.238;2023-04-12T08:35:07;2.33;;;1.08;;
21822;SDS011;11074;48.596;9.238;2023-04-12T08:37:33;1.83;;;1.05;;
21822;SDS011;11074;48.596;9.238;2023-04-12T08:40:01;2.35;;;1.00;;
21822;SDS011;11074;48.596;9.238;2023-04-12T08:42:35;5.53;;;1.52;;
21822;SDS011;11074;48.596;9.238;2023-04-12T08:45:05;5.00;;;1.40;;
21822;SDS011;11074;48.596;9.238;2023-04-12T08:47:34;2.28;;;1.00;;
21822;SDS011;11074;48.596;9.238;2023-04-12T08:50:03;4.40;;;1.27;;
21822;SDS011;11074;48.596;9.238;2023-04-12T08:52:34;2.72;;;0.90;;
21822;SDS011;11074;48.596;9.238;2023-04-12T08:55:05;4.18;;;1.30;;
21822;SDS011;11074;48.596;9.238;2023-04-12T08:57:33;2.17;;;1.00;;
21822;SDS011;11074;48.596;9.238;2023-04-12T09:00:01;2.40;;;1.08;;
21822;SDS011;11074;48.596;9.238;2023-04-12T09:02:28;2.65;;;1.00;;
21822;SDS011;11074;48.596;9.238;2023-04-12T09:04:55;1.80;;;0.98;;
21822;SDS011;11074;48.596;9.238;2023-04-12T09:07:20;1.00;;;0.68;;
21822;SDS011;11074;48.596;9.238;2023-04-12T09:09:47;2.00;;;0.90;;
21822;SDS011;11074;48.596;9.238;2023-04-12T09:12:14;1.45;;;1.05;;
21822;SDS011;11074;48.596;9.238;2023-04-12T09:14:42;2.80;;;1.10;;
21822;SDS011;11074;48.596;9.238;2023-04-12T09:17:25;4.10;;;1.10;;
21822;SDS011;11074;48.596;9.238;2023-04-12T09:19:52;2.72;;;1.17;;
21822;SDS011;11074;48.596;9.238;2023-04-12T09:22:36;3.42;;;1.10;;
21822;SDS011;11074;48.596;9.238;2023-04-12T09:25:09;2.25;;;0.90;;
21822;SDS011;11074;48.596;9.238;2023-04-12T09:27:48;2.35;;;1.30;;
21822;SDS011;11074;48.596;9.238;2023-04-12T09:30:16;3.95;;;1.40;;
21822;SDS011;11074;48.596;9.238;2023-04-12T09:32:44;3.40;;;1.20;;
21822;SDS011;11074;48.596;9.238;2023-04-12T09:35:13;2.97;;;1.05;;
21822;SDS011;11074;48.596;9.238;2023-04-12T09:37:38;2.67;;;1.05;;
21822;SDS011;11074;48.596;9.238;2023-04-12T09:40:05;1.55;;;1.00;;
21822;SDS011;11074;48.596;9.238;2023-04-12T09:42:33;3.20;;;1.17;;
21822;SDS011;11074;48.596;9.238;2023-04-12T09:45:21;4.00;;;1.23;;
21822;SDS011;11074;48.596;9.238;2023-04-12T09:47:49;3.80;;;1.40;;
21822;SDS011;11074;48.596;9.238;2023-04-12T09:50:20;2.78;;;1.15;;
21822;SDS011;11074;48.596;9.238;2023-04-12T09:52:54;1.77;;;1.17;;
21822;SDS011;11074;48.596;9.238;2023-04-12T09:55:22;5.25;;;1.50;;
21822;SDS011;11074;48.596;9.238;2023-04-12T09:57:50;4.72;;;2.00;;
21822;SDS011;11074;48.596;9.238;2023-04-12T10:00:18;3.00;;;1.60;;
21822;SDS011;11074;48.596;9.238;2023-04-12T10:02:47;2.78;;;1.45;;
21822;SDS011;11074;48.596;9.238;2023-04-12T10:05:16;3.70;;;1.40;;
21822;SDS011;11074;48.596;9.238;2023-04-12T10:07:44;3.88;;;1.35;;
21822;SDS011;11074;48.596;9.238;2023-04-12T10:10:12;3.60;;;1.25;;
21822;SDS011;11074;48.596;9.238;2023-04-12T10:12:42;2.22;;;1.40;;
21822;SDS011;11074;48.596;9.238;2023-04-12T10:15:10;3.58;;;1.58;;
21822;SDS011;11074;48.596;9.238;2023-04-12T10:20:09;2.97;;;1.30;;
21822;SDS011;11074;48.596;9.238;2023-04-12T10:22:46;4.03;;;1.45;;
21822;SDS011;11074;48.596;9.238;2023-04-12T10:25:16;5.13;;;1.60;;
21822;SDS011;11074;48.596;9.238;2023-04-12T10:27:44;4.07;;;1.48;;
21822;SDS011;11074;48.596;9.238;2023-04-12T10:32:43;1.85;;;1.10;;
21822;SDS011;11074;48.596;9.238;2023-04-12T10:35:09;3.15;;;1.30;;
21822;SDS011;11074;48.596;9.238;2023-04-12T10:41:05;2.95;;;1.20;;
21822;SDS011;11074;48.596;9.238;2023-04-12T10:43:38;2.85;;;0.90;;
21822;SDS011;11074;48.596;9.238;2023-04-12T10:49:08;4.60;;;1.40;;
21822;SDS011;11074;48.596;9.238;2023-04-12T10:51:39;2.22;;;1.00;;
21822;SDS011;11074;48.596;9.238;2023-04-12T10:56:50;2.38;;;1.10;;
21822;SDS011;11074;48.596;9.238;2023-04-12T10:59:16;5.13;;;0.98;;
21822;SDS011;11074;48.596;9.238;2023-04-12T11:05:01;2.88;;;0.93;;
21822;SDS011;11074;48.596;9.238;2023-04-12T11:07:43;1.38;;;0.80;;
21822;SDS011;11074;48.596;9.238;2023-04-12T11:10:13;1.50;;;0.80;;
21822;SDS011;11074;48.596;9.238;2023-04-12T11:12:41;1.60;;;0.80;;
21822;SDS011;11074;48.596;9.238;2023-04-12T11:15:29;2.47;;;0.90;;
21822;SDS011;11074;48.596;9.238;2023-04-12T11:17:58;1.70;;;0.70;;
21822;SDS011;11074;48.596;9.238;2023-04-12T11:20:25;3.17;;;0.93;;
21822;SDS011;11074;48.596;9.238;2023-04-12T11:22:51;3.95;;;1.05;;
21822;SDS011;11074;48.596;9.238;2023-04-12T11:25:19;1.50;;;0.90;;
21822;SDS011;11074;48.596;9.238;2023-04-12T11:27:48;2.90;;;0.98;;
21822;SDS011;11074;48.596;9.238;2023-04-12T11:30:21;1.02;;;0.60;;
21822;SDS011;11074;48.596;9.238;2023-04-12T11:32:48;2.85;;;0.80;;
21822;SDS011;11074;48.596;9.238;2023-04-12T11:35:14;1.67;;;0.90;;
21822;SDS011;11074;48.596;9.238;2023-04-12T11:37:40;2.00;;;1.10;;
21822;SDS011;11074;48.596;9.238;2023-04-12T11:40:08;2.25;;;0.63;;
21822;SDS011;11074;48.596;9.238;2023-04-12T11:42:34;1.30;;;0.70;;
21822;SDS011;11074;48.596;9.238;2023-04-12T11:45:03;2.08;;;0.57;;
21822;SDS011;11074;48.596;9.238;2023-04-12T11:47:29;2.22;;;0.70;;
21822;SDS011;11074;48.596;9.238;2023-04-12T11:49:56;2.15;;;0.88;;
21822;SDS011;11074;48.596;9.238;2023-04-12T11:52:30;1.15;;;0.60;;
21822;SDS011;11074;48.596;9.238;2023-04-12T11:57:30;1.23;;;0.65;;
21822;SDS011;11074;48.596;9.238;2023-04-12T11:59:57;1.15;;;0.60;;
21822;SDS011;11074;48.596;9.238;2023-04-12T12:02:24;0.93;;;0.60;;
21822;SDS011;11074;48.596;9.238;2023-04-12T12:04:50;2.20;;;0.57;;
21822;SDS011;11074;48.596;9.238;2023-04-12T12:07:17;1.77;;;0.70;;
21822;SDS011;11074;48.596;9.238;2023-04-12T12:09:45;2.72;;;0.80;;
21822;SDS011;11074;48.596;9.238;2023-04-12T12:12:12;1.35;;;0.50;;
21822;SDS011;11074;48.596;9.238;2023-04-12T12:14:38;1.65;;;0.50;;
21822;SDS011;11074;48.596;9.238;2023-04-12T12:17:09;1.55;;;0.50;;
21822;SDS011;11074;48.596;9.238;2023-04-12T12:19:40;1.38;;;0.60;;
21822;SDS011;11074;48.596;9.238;2023-04-12T12:22:14;0.73;;;0.50;;
21822;SDS011;11074;48.596;9.238;2023-04-12T12:25:05;1.17;;;0.50;;
21822;SDS011;11074;48.596;9.238;2023-04-12T12:27:34;1.75;;;0.68;;
21822;SDS011;11074;48.596;9.238;2023-04-12T12:30:07;3.50;;;0.80;;
21822;SDS011;11074;48.596;9.238;2023-04-12T12:32:35;1.45;;;0.55;;
21822;SDS011;11074;48.596;9.238;2023-04-12T12:35:07;1.35;;;0.60;;
21822;SDS011;11074;48.596;9.238;2023-04-12T12:37:36;3.03;;;0.60;;
21822;SDS011;11074;48.596;9.238;2023-04-12T12:42:42;2.83;;;0.70;;
21822;SDS011;11074;48.596;9.238;2023-04-12T12:45:10;1.33;;;0.50;;
21822;SDS011;11074;48.596;9.238;2023-04-12T12:50:17;1.58;;;0.63;;
21822;SDS011;11074;48.596;9.238;2023-04-12T12:52:47;1.13;;;0.60;;
21822;SDS011;11074;48.596;9.238;2023-04-12T12:55:13;0.80;;;0.40;;
21822;SDS011;11074;48.596;9.238;2023-04-12T12:57:43;2.10;;;0.52;;
21822;SDS011;11074;48.596;9.238;2023-04-12T13:00:14;1.50;;;0.60;;
21822;SDS011;11074;48.596;9.238;2023-04-12T13:02:41;1.60;;;0.47;;
21822;SDS011;11074;48.596;9.238;2023-04-12T13:05:07;1.67;;;0.47;;
21822;SDS011;11074;48.596;9.238;2023-04-12T13:07:34;0.88;;;0.50;;
21822;SDS011;11074;48.596;9.238;2023-04-12T13:10:00;0.85;;;0.40;;
21822;SDS011;11074;48.596;9.238;2023-04-12T13:12:27;1.05;;;0.40;;
21822;SDS011;11074;48.596;9.238;2023-04-12T13:14:53;1.35;;;0.47;;
21822;SDS011;11074;48.596;9.238;2023-04-12T13:17:19;1.30;;;0.50;;
21822;SDS011;11074;48.596;9.238;2023-04-12T13:19:45;0.90;;;0.50;;
21822;SDS011;11074;48.596;9.238;2023-04-12T13:22:12;1.30;;;0.57;;
21822;SDS011;11074;48.596;9.238;2023-04-12T13:24:40;1.13;;;0.50;;
21822;SDS011;11074;48.596;9.238;2023-04-12T13:27:07;0.85;;;0.40;;
21822;SDS011;11074;48.596;9.238;2023-04-12T13:29:34;1.58;;;0.50;;
21822;SDS011;11074;48.596;9.238;2023-04-12T13:32:01;2.08;;;0.75;;
21822;SDS011;11074;48.596;9.238;2023-04-12T13:34:27;0.70;;;0.43;;
21822;SDS011;11074;48.596;9.238;2023-04-12T13:36:53;1.80;;;0.60;;
21822;SDS011;11074;48.596;9.238;2023-04-12T13:39:19;0.90;;;0.45;;
21822;SDS011;11074;48.596;9.238;2023-04-12T13:41:45;1.38;;;0.38;;
21822;SDS011;11074;48.596;9.238;2023-04-12T13:44:11;1.65;;;0.50;;
21822;SDS011;11074;48.596;9.238;2023-04-12T13:46:36;1.00;;;0.43;;
21822;SDS011;11074;48.596;9.238;2023-04-12T13:49:02;1.27;;;0.47;;
21822;SDS011;11074;48.596;9.238;2023-04-12T13:51:28;0.80;;;0.60;;
21822;SDS011;11074;48.596;9.238;2023-04-12T13:53:54;3.15;;;0.60;;
21822;SDS011;11074;48.596;9.238;2023-04-12T13:56:20;1.77;;;0.50;;
21822;SDS011;11074;48.596;9.238;2023-04-12T13:58:46;0.98;;;0.50;;
21822;SDS011;11074;48.596;9.238;2023-04-12T14:01:12;0.98;;;0.50;;
21822;SDS011;11074;48.596;9.238;2023-04-12T14:03:38;1.15;;;0.50;;
21822;SDS011;11074;48.596;9.238;2023-04-12T14:06:04;0.82;;;0.50;;
21822;SDS011;11074;48.596;9.238;2023-04-12T14:08:31;2.92;;;0.50;;
21822;SDS011;11074;48.596;9.238;2023-04-12T14:10:58;0.98;;;0.47;;
21822;SDS011;11074;48.596;9.238;2023-04-12T14:13:25;0.85;;;0.50;;
21822;SDS011;11074;48.596;9.238;2023-04-12T14:15:51;1.15;;;0.65;;
21822;SDS011;11074;48.596;9.238;2023-04-12T14:18:18;0.93;;;0.60;;
21822;SDS011;11074;48.596;9.238;2023-04-12T14:20:46;0.75;;;0.50;;
21822;SDS011;11074;48.596;9.238;2023-04-12T14:23:16;0.80;;;0.60;;
21822;SDS011;11074;48.596;9.238;2023-04-12T14:25:43;1.92;;;0.85;;
21822;SDS011;11074;48.596;9.238;2023-04-12T14:28:09;2.38;;;0.90;;
21822;SDS011;11074;48.596;9.238;2023-04-12T14:30:41;1.63;;;0.80;;
21822;SDS011;11074;48.596;9.238;2023-04-12T14:33:07;1.80;;;0.70;;
21822;SDS011;11074;48.596;9.238;2023-04-12T14:35:34;1.65;;;0.77;;
21822;SDS011;11074;48.596;9.238;2023-04-12T14:38:00;2.28;;;0.60;;
21822;SDS011;11074;48.596;9.238;2023-04-12T14:40:26;1.58;;;0.63;;
21822;SDS011;11074;48.596;9.238;2023-04-12T14:42:52;1.45;;;0.65;;
21822;SDS011;11074;48.596;9.238;2023-04-12T14:45:18;0.77;;;0.47;;
21822;SDS011;11074;48.596;9.238;2023-04-12T14:47:44;0.47;;;0.30;;
21822;SDS011;11074;48.596;9.238;2023-04-12T14:50:10;0.85;;;0.50;;
21822;SDS011;11074;48.596;9.238;2023-04-12T14:52:36;1.20;;;0.70;;
21822;SDS011;11074;48.596;9.238;2023-04-12T14:55:02;2.10;;;0.63;;
21822;SDS011;11074;48.596;9.238;2023-04-12T14:57:28;1.10;;;0.50;;
21822;SDS011;11074;48.596;9.238;2023-04-12T14:59:54;0.80;;;0.50;;
21822;SDS011;11074;48.596;9.238;2023-04-12T15:02:20;1.75;;;0.50;;
21822;SDS011;11074;48.596;9.238;2023-04-12T15:04:47;1.88;;;0.70;;
21822;SDS011;11074;48.596;9.238;2023-04-12T15:07:13;1.88;;;0.80;;
21822;SDS011;11074;48.596;9.238;2023-04-12T15:09:40;0.80;;;0.57;;
21822;SDS011;11074;48.596;9.238;2023-04-12T15:12:08;3.00;;;0.50;;
21822;SDS011;11074;48.596;9.238;2023-04-12T15:14:36;0.80;;;0.50;;
21822;SDS011;11074;48.596;9.238;2023-04-12T15:17:02;1.17;;;0.50;;
21822;SDS011;11074;48.596;9.238;2023-04-12T15:19:29;2.15;;;0.73;;
21822;SDS011;11074;48.596;9.238;2023-04-12T15:21:55;0.98;;;0.50;;
21822;SDS011;11074;48.596;9.238;2023-04-12T15:24:21;1.80;;;0.80;;
21822;SDS011;11074;48.596;9.238;2023-04-12T15:26:48;2.08;;;0.90;;
21822;SDS011;11074;48.596;9.238;2023-04-12T15:29:17;4.15;;;0.88;;
21822;SDS011;11074;48.596;9.238;2023-04-12T15:31:45;1.73;;;0.80;;